Time;durP1;ratioP1;P1;durP2;ratioP2;P2;SDS_P1;SDS_P2;PMS_P1;PMS_P2;Temp;Humidity;BMP_temperature;BMP_pressure;BME280_temperature;BME280_humidity;BME280_pressure;Samples;Min_cycle;Max_cycle;Signal;HPM_P1;HPM_P2
2021/10/31 00:07:38;;;;;;;13.13;10.23;;;;;;;7.34;100.00;100433.00;21056900;28;20249;-72
2021/10/31 00:18:17;;;;;;;12.70;10.37;;;;;;;7.14;100.00;100439.28;21054757;28;20223;-71
2021/10/31 00:28:54;;;;;;;16.97;10.97;;;;;;;7.03;100.00;100430.97;21054278;28;20223;-71
2021/10/31 00:39:32;;;;;;;15.17;11.03;;;;;;;6.98;100.00;100440.97;21038820;28;20230;-71
2021/10/31 00:50:10;;;;;;;14.47;11.10;;;;;;;6.76;100.00;100449.06;20998285;28;20554;-71
2021/10/31 01:00:49;;;;;;;13.60;11.40;;;;;;;6.67;100.00;100441.53;20995843;28;20258;-71
2021/10/31 01:11:40;;;;;;;13.50;10.27;;;;;;;6.55;100.00;100442.94;20996192;28;20234;-71
2021/10/31 01:22:27;;;;;;;12.13;9.47;;;;;;;6.28;100.00;100441.56;20994470;28;20585;-71
2021/10/31 01:33:11;;;;;;;11.60;9.10;;;;;;;5.99;100.00;100435.75;20992629;28;20727;-71
2021/10/31 01:43:59;;;;;;;11.47;9.53;;;;;;;5.74;100.00;100435.06;20994011;28;20280;-71
2021/10/31 02:04:36;;;;;;;13.57;10.07;;;;;;;5.74;100.00;100445.63;20689501;27;8627070;-71
2021/10/31 02:15:08;;;;;;;14.13;11.00;;;;;;;5.78;100.00;100442.81;20974276;28;20707;-71
2021/10/31 02:25:45;;;;;;;13.10;10.37;;;;;;;5.70;100.00;100439.59;21056728;28;20230;-71
2021/10/31 02:36:22;;;;;;;14.43;10.90;;;;;;;5.79;100.00;100444.53;21057040;28;20726;-71
2021/10/31 02:47:01;;;;;;;13.93;10.83;;;;;;;5.75;100.00;100447.38;21056038;28;20217;-71
2021/10/31 02:57:43;;;;;;;11.70;10.13;;;;;;;5.66;100.00;100453.91;21054069;28;20240;-71
2021/10/31 03:08:23;;;;;;;12.33;9.93;;;;;;;5.62;100.00;100462.03;21039598;28;20246;-71
2021/10/31 03:28:55;;;;;;;12.63;10.77;;;;;;;5.53;100.00;100473.03;20681913;27;8599264;-71
2021/10/31 03:39:32;;;;;;;12.60;10.23;;;;;;;5.50;100.00;100478.44;20974590;28;20227;-71
2021/10/31 03:50:12;;;;;;;13.13;11.03;;;;;;;5.36;100.00;100473.69;20973967;28;20291;-71
2021/10/31 04:00:48;;;;;;;13.87;10.67;;;;;;;5.23;100.00;100483.91;21052568;28;20233;-71
2021/10/31 04:11:26;;;;;;;13.43;10.30;;;;;;;5.00;100.00;100495.38;21055918;28;20575;-71
2021/10/31 04:22:03;;;;;;;15.80;11.80;;;;;;;4.92;100.00;100491.31;21053697;28;20226;-71
2021/10/31 04:42:39;;;;;;;12.97;10.47;;;;;;;4.65;100.00;100488.78;20689857;27;8572029;-71
2021/10/31 04:53:16;;;;;;;14.20;10.70;;;;;;;4.47;100.00;100494.75;21057509;28;20229;-72
2021/10/31 05:03:55;;;;;;;11.77;9.53;;;;;;;4.33;100.00;100502.34;21056783;28;20222;-71
2021/10/31 05:14:32;;;;;;;23.20;12.97;;;;;;;4.16;100.00;100494.13;21055128;28;20283;-71
2021/10/31 05:35:05;;;;;;;13.53;11.00;;;;;;;4.05;100.00;100496.28;20775860;27;8171264;-71
2021/10/31 05:45:41;;;;;;;16.10;11.70;;;;;;;4.16;100.00;100500.28;21058133;28;20233;-72
2021/10/31 05:56:19;;;;;;;15.77;12.57;;;;;;;4.33;100.00;100497.06;21057337;28;20217;-71
2021/10/31 06:06:56;;;;;;;19.77;14.00;;;;;;;4.57;100.00;100496.16;21056969;28;20232;-71
2021/10/31 06:17:35;;;;;;;17.37;14.03;;;;;;;4.89;100.00;100502.88;21054762;28;20229;-71
2021/10/31 06:28:13;;;;;;;16.53;11.87;;;;;;;5.36;100.00;100519.53;21054186;28;20297;-70
2021/10/31 06:38:51;;;;;;;14.90;10.87;;;;;;;5.86;100.00;100521.06;21046960;28;20316;-71
2021/10/31 06:49:28;;;;;;;11.23;9.87;;;;;;;6.39;100.00;100534.72;20997603;28;20257;-71
2021/10/31 07:00:07;;;;;;;12.40;10.43;;;;;;;6.96;100.00;100535.69;20997194;28;20223;-71
2021/10/31 07:10:31;;;;;;;11.23;10.03;;;;;;;7.53;100.00;100538.22;20885963;28;20230;-71
2021/10/31 07:20:48;;;;;;;10.63;8.80;;;;;;;8.11;100.00;100548.63;20882857;28;20226;-72
2021/10/31 07:31:16;;;;;;;9.47;8.47;;;;;;;8.70;100.00;100554.50;20885750;28;20261;-73
2021/10/31 07:41:22;;;;;;;9.63;8.63;;;;;;;9.16;100.00;100556.44;20886832;28;20746;-75
2021/10/31 07:51:25;;;;;;;8.90;7.97;;;;;;;9.80;100.00;100559.94;20895621;28;20306;-71
2021/10/31 08:01:30;;;;;;;9.03;8.13;;;;;;;10.31;100.00;100566.75;20881203;28;20898;-70
2021/10/31 08:11:34;;;;;;;8.73;7.93;;;;;;;10.80;100.00;100570.00;20910317;28;20633;-70
2021/10/31 08:21:40;;;;;;;10.37;8.67;;;;;;;11.26;100.00;100561.81;20890372;28;20231;-70
2021/10/31 08:31:48;;;;;;;9.20;8.30;;;;;;;11.72;100.00;100563.22;20906771;28;20247;-75
2021/10/31 08:41:54;;;;;;;10.43;8.80;;;;;;;12.14;100.00;100562.25;20910319;28;20718;-73
2021/10/31 08:51:57;;;;;;;8.43;7.43;;;;;;;12.49;100.00;100562.56;20889931;28;20234;-76
2021/10/31 09:02:03;;;;;;;9.90;7.53;;;;;;;12.87;99.25;100561.72;20895197;28;20236;-71
2021/10/31 09:12:08;;;;;;;7.50;6.70;;;;;;;13.26;96.70;100564.31;20969198;28;20238;-70
2021/10/31 09:22:13;;;;;;;7.67;6.67;;;;;;;13.59;92.19;100554.78;20983545;28;20318;-70
2021/10/31 09:32:18;;;;;;;14.23;7.20;;;;;;;13.89;91.12;100552.53;20982798;28;20254;-70
2021/10/31 09:42:24;;;;;;;7.40;6.53;;;;;;;14.12;89.63;100552.66;20986371;28;20225;-69
2021/10/31 09:52:29;;;;;;;6.93;5.93;;;;;;;14.31;88.01;100552.97;20985643;28;20226;-70
2021/10/31 10:02:46;;;;;;;7.23;6.50;;;;;;;14.48;85.57;100543.66;20984343;28;20226;-68
2021/10/31 10:12:51;;;;;;;7.10;6.40;;;;;;;14.70;85.24;100528.44;20968178;28;20317;-70
2021/10/31 10:23:10;;;;;;;6.97;6.27;;;;;;;15.50;76.41;100522.94;20974614;28;20226;-70
2021/10/31 10:33:20;;;;;;;7.00;5.83;;;;;;;16.19;77.35;100518.94;20947890;28;20261;-68
2021/10/31 10:43:31;;;;;;;7.37;6.67;;;;;;;16.02;76.00;100524.91;20980924;28;20218;-70
2021/10/31 10:53:35;;;;;;;6.53;5.93;;;;;;;15.82;78.77;100501.47;20996131;28;20230;-70
2021/10/31 11:03:40;;;;;;;6.03;5.43;;;;;;;15.80;78.43;100498.94;20996251;28;20306;-70
2021/10/31 11:13:47;;;;;;;6.03;5.43;;;;;;;15.84;78.20;100488.75;20995678;28;20775;-70
2021/10/31 11:23:57;;;;;;;7.13;5.60;;;;;;;15.96;76.58;100476.09;20995463;28;20622;-70
2021/10/31 11:34:01;;;;;;;5.63;5.13;;;;;;;16.01;76.92;100469.34;20994196;28;20301;-70
2021/10/31 11:44:06;;;;;;;5.90;5.27;;;;;;;16.10;76.30;100446.19;20993656;28;20629;-70
2021/10/31 11:54:12;;;;;;;5.87;5.37;;;;;;;16.22;74.93;100439.75;20991738;28;20314;-69
2021/10/31 12:15:09;;;;;;;7.20;5.80;;;;;;;16.39;73.94;100420.31;20986416;28;20824;-73
2021/10/31 12:25:14;;;;;;;5.60;5.10;;;;;;;16.48;73.33;100421.34;20990747;28;20649;-61
2021/10/31 12:35:29;;;;;;;5.60;5.10;;;;;;;16.55;71.51;100409.03;20984708;28;20222;-62
2021/10/31 12:45:36;;;;;;;5.47;4.97;;;;;;;16.57;74.54;100407.91;20988078;28;20214;-66
2021/10/31 12:55:41;;;;;;;5.13;4.63;;;;;;;16.64;74.41;100389.41;20988087;28;20731;-66
2021/10/31 13:05:46;;;;;;;5.17;4.67;;;;;;;16.68;72.19;100388.13;20987018;28;20297;-66
2021/10/31 13:15:53;;;;;;;5.40;4.90;;;;;;;16.66;72.05;100379.34;20988515;28;20325;-66
2021/10/31 13:26:03;;;;;;;5.97;4.93;;;;;;;16.60;71.43;100390.63;20987608;28;20708;-66
2021/10/31 13:36:12;;;;;;;6.07;5.27;;;;;;;16.54;72.41;100375.84;20982759;28;20234;-65
2021/10/31 13:46:17;;;;;;;6.23;4.60;;;;;;;16.41;71.17;100375.25;20986278;28;20226;-65
2021/10/31 13:56:21;;;;;;;4.80;4.30;;;;;;;16.21;72.58;100379.66;21002115;28;20223;-66
2021/10/31 14:06:31;;;;;;;4.37;4.00;;;;;;;15.93;71.45;100374.97;21001676;28;20628;-65
2021/10/31 14:16:34;;;;;;;4.67;4.27;;;;;;;15.53;74.91;100365.81;21000001;28;20779;-65
2021/10/31 14:26:40;;;;;;;4.10;3.70;;;;;;;14.98;76.56;100357.81;20999572;28;20658;-67
2021/10/31 14:36:44;;;;;;;4.67;4.23;;;;;;;14.44;76.96;100355.06;20997398;28;20690;-65
2021/10/31 14:46:51;;;;;;;6.00;4.50;;;;;;;13.78;79.15;100356.66;20993780;28;20719;-67
2021/10/31 14:57:05;;;;;;;14.13;7.30;;;;;;;13.02;80.80;100359.75;20994307;28;20568;-69
2021/10/31 15:07:11;;;;;;;44.73;10.40;;;;;;;12.27;84.49;100350.91;20991874;28;20757;-67
2021/10/31 15:17:16;;;;;;;42.53;6.33;;;;;;;11.61;88.41;100348.38;20995545;28;20236;-66
2021/10/31 15:27:21;;;;;;;6.33;5.03;;;;;;;11.10;91.68;100353.63;20992691;28;20241;-67
2021/10/31 15:37:25;;;;;;;6.83;5.10;;;;;;;10.79;95.59;100347.59;20993230;28;20432;-68
2021/10/31 15:47:30;;;;;;;7.07;5.77;;;;;;;10.35;98.07;100350.44;20989884;28;20238;-68
2021/10/31 15:57:34;;;;;;;314.57;23.77;;;;;;;9.85;100.00;100344.66;20992958;28;20246;-67
2021/10/31 16:07:39;;;;;;;41.20;8.17;;;;;;;9.48;100.00;100348.69;20910087;28;20262;-55
2021/10/31 16:17:44;;;;;;;85.03;29.70;;;;;;;9.61;100.00;100347.00;20799792;28;20242;-55
2021/10/31 16:27:49;;;;;;;41.33;24.47;;;;;;;10.25;100.00;100353.78;20841165;28;20234;-59
2021/10/31 16:47:58;;;;;;;33.83;17.77;;;;;;;10.81;100.00;100347.50;21050714;27;20571;-59
2021/10/31 16:58:02;;;;;;;35.70;20.87;;;;;;;10.79;100.00;100354.75;21016671;28;20652;-56
2021/10/31 17:18:06;;;;;;;33.07;21.07;;;;;;;10.46;100.00;100342.59;20933390;27;20740;-61
2021/10/31 17:28:11;;;;;;;33.17;19.57;;;;;;;10.29;100.00;100344.59;20935086;28;20325;-54
2021/10/31 17:38:16;;;;;;;37.23;19.13;;;;;;;10.26;100.00;100332.34;20217477;28;10001273;-65
2021/10/31 17:48:20;;;;;;;47.10;24.00;;;;;;;9.93;100.00;100321.06;20925510;28;20230;-56
2021/10/31 17:58:25;;;;;;;59.70;28.43;;;;;;;9.65;100.00;100306.78;20918844;28;20249;-57
2021/10/31 18:08:29;;;;;;;69.70;28.17;;;;;;;9.50;100.00;100297.03;20946556;28;20231;-60
2021/10/31 18:18:34;;;;;;;76.53;31.97;;;;;;;9.41;100.00;100294.94;20941338;28;21053;-58
2021/10/31 18:48:33;;;;;;;73.97;31.73;;;;;;;9.13;100.00;100286.84;21109864;27;20594;-55
2021/10/31 18:58:37;;;;;;;36.10;21.47;;;;;;;8.92;100.00;100263.22;21058355;27;20225;-55
2021/10/31 19:18:41;;;;;;;19.10;14.93;;;;;;;8.37;100.00;100244.22;21060884;27;20637;-56
2021/10/31 19:28:49;;;;;;;15.87;12.70;;;;;;;7.78;100.00;100242.19;21034261;28;21064;-56
2021/10/31 19:38:57;;;;;;;14.33;12.83;;;;;;;7.12;100.00;100229.75;21063168;28;20228;-58
2021/10/31 19:49:04;;;;;;;17.00;14.37;;;;;;;7.06;100.00;100218.56;20967022;28;20373;-60
2021/10/31 20:48:53;;;;;;;27.57;21.07;;;;;;;7.24;100.00;100161.91;20922564;27;20665;-56
2021/10/31 22:49:05;;;;;;;18.23;15.70;;;;;;;6.71;100.00;100048.00;21097800;27;20659;-65
2021/10/31 23:19:09;;;;;;;22.47;18.13;;;;;;;6.59;100.00;100027.44;20957602;27;20604;-71
